Bridgeport, Washington
Current Conditions -  °F | °C
As of 3:53 AM on Monday 22 Dec 2014 (Local Time) from KOMK Reporting Station
Clear Clear  
Wind Chill: 24°   Ceiling: Unl
Heat Index: 31°   Visibility: 10mi
Dew Point: 27°   Wind: 7mph
Humidity: 85%   Direction: 290°WNW
Pressure: 30.04"   Gusts: NA
Location:  48.01°N, 119.67°W
Report Text: KOMK 221153Z AUTO 29006KT 10SM CLR M01/M03 A3004 RMK AO2 SLP182 T10061028 10050 21011 53019
Loading
Personal Weather Stations






























Interactive Weather Map New forecast layout! Learn more

10-Day Weather Forecast

Advertisements
Track Severe Weather on mobile